Pagina principale
METAR-TAF:

METAR-TAF

Aeroporti :

Pápa, Ungheria

latitudine: 47-12N, longitudine: 017-30E, altezza: 145 m

Osservazione

Il bollettino è stato emesso 22 minuti fa, alle 09:15 UTC
Vento 10 kt da sud, variando fra sud/sud-est e sud-ovest
Temperature 24°C
Umidità 41%
Pressione 1019 hPa
Visibilità 10 km o più
nessuna nube inferiore a 1500 m e nessun cumulonembo

METAR: LHPA 290915Z 19010KT 150V230 CAVOK 24/10 Q1019 NOSIG RMK BLU

Ora: 11:37 (09:37 UTC)

Previsione

Il bollettino è stato emesso 4 ore e 22 minuti fa, alle 05:15 UTC
Previsione valida dal 29 alle 06 UTC al 30 alle 06 UTC
Vento 5 kt da sud/sud-est
Visibilità 10 km o più
nessuna nube inferiore a 1500 m e nessun cumulonembo
Evoluzione graduale
dal 29 alle 06 UTC al 29 alle 09 UTC
Vento 10 kt da sud/sud-ovest
Evoluzione graduale
dal 29 alle 13 UTC al 29 alle 16 UTC
Vento 5 kt da sud

TAF: LHPA 290515Z 2906/3006 16005KT CAVOK BECMG 2906/2909 20010KT BECMG 2913/2916 19005KT

Osservazioni e previsioni meteorologiche di più di 4000 aeroporti (messaggi METAR e TAF).

Le stazioni disponibili sono rappresentate dai dischi gialli e rossi sulla carta.

Puntare il mouse per vedere il nome della stazione.

Clicca sopra per visualizzare le osservazioni e previsioni meteorologiche.

Per cambiare la mappa : fare clic sui pulsanti verdi con una croce nera per ingrandire, il pulsante verde con un trattino per diminuire, o sulla freccia verde per le mappe adiacenti.


METAR-TAF: